Details From SARC - CORRIENTES
To SGAS - SILVIO PETTIROSSI INTL
Flight Number -
Tags generated
Created
Modified
Stats Distance 149 nm / 276 km
Max Altitude 13,900 ft / 4,237 m
Waypoints 5
Social Downloads 0
Likes 0
Share VATSIM

Download

Looking for another format? Having issues loading an existing format? Contact us
Advertisement - Login to hide

Notes

Basic altitude profile: - Ascent Rate: 2500ft/min - Ascent Speed: 250kts - Cruise Altitude: 35000ft - Cruise Speed: 420kts - Descent Rate: 1500ft/min - Descent Speed: 250kts Options: - Use NATs: yes - Use PACOTS: yes - Use low airways: yes - Use high airways: yes

Route

SARC FSA A428 VAS SGAS

ID Type Via Altitude Latitude Longitude Leg Dist Tot Dist Heading (true) Name
O SARC APT - 0 ft / 0 m -27.44550˚ -58.76186˚ - 0 nm - CORRIENTES
FSA VOR - 13,900 ft / 4,237 m -26.21028˚ -58.22472˚ 79 nm 79 nm 21° / 21° FORMOSA VOR-DME
ARPAS FIX A428 (AWY-LO) 7,500 ft / 2,286 m -25.73167˚ -57.87528˚ 34 nm 113 nm 33° / 33° -
VAS VOR A428 (AWY-LO) 4,000 ft / 1,219 m -25.24417˚ -57.52194˚ 34 nm 148 nm 33° / 33° ASUNCION VOR-DME
O SGAS APT - 0 ft / 0 m -25.23985˚ -57.51914˚ 0 nm 149 nm 30° / 30° SILVIO PETTIROSSI INTL

Altitude Profile

Advertisement - Login to hide

SARC

Details ICAO SARC (CNQ)
Name CORRIENTES
Region Argentina
Timezone America/Argentina/Cordoba (UTC-3.0)
Stats Elevation 203 ft / 62 m (AMSL)
Location -27.445503° -58.761862°
Runways 1
Magnetic Variation 12.298° W

METAR

SARC 161900Z 05013KT 9000 FEW025 41/19 Q1001

Decode

TAF

Not found

Departure Runways

ID Width Length Bearing (true) Bearing (mag) Surface Threshold Offset Overrun Length
02 148 ft / 45 m 6,880 ft / 2,097 m 7.82° 20.12° Concrete 0 ft / 0 m 0 ft / 0 m
20 148 ft / 45 m 6,880 ft / 2,097 m 187.82° 200.12° Concrete 0 ft / 0 m 0 ft / 0 m

SGAS

Details ICAO SGAS (ASU)
Name SILVIO PETTIROSSI INTL
Region Paraguay
Timezone America/Asuncion (UTC-3.0)
Stats Elevation 292 ft / 89 m (AMSL)
Location -25.239850° -57.519135°
Runways 1
Magnetic Variation 14.157° W

METAR

SGAS 161900Z 05014KT 9999 SCT033 37/22 Q1004

Decode

TAF

Not found

Destination Runways

ID Width Length Bearing (true) Bearing (mag) Surface Threshold Offset Overrun Length
02 151 ft / 46 m 11,043 ft / 3,366 m 12.40° 26.56° Asphalt 0 ft / 0 m 161 ft / 49 m
20 151 ft / 46 m 11,043 ft / 3,366 m 192.40° 206.56° Asphalt 0 ft / 0 m 165 ft / 50 m

Approach Navaids

Runway Type Ident Frequency Range Bearing (true) Bearing (mag) Slope Elevation
20 Localiser IPST 109.50 MHz 18 nm / 33 km 192.47° 206.63° - 288 ft / 88 m (AMSL)
20 Glidescope IPST 109.50 MHz 10 nm / 19 km 192.40° 206.56° 3.00° 298 ft / 91 m (AMSL)

Popular Alternatives